createdAt,value
2023-02-27T07:36:49.021Z,63.71
2023-02-27T07:39:17.445Z,63.95
2023-02-27T07:41:45.631Z,63.02
2023-02-27T07:44:13.913Z,62.67
2023-02-27T07:49:12.559Z,61.80
2023-02-27T07:51:41.430Z,62.79
2023-02-27T08:10:09.078Z,69.87
2023-02-27T08:12:37.977Z,67.41
2023-02-27T08:15:08.036Z,65.84
2023-02-27T08:19:56.138Z,62.99
2023-02-27T08:22:24.904Z,61.50
2023-02-27T08:24:53.645Z,60.89
2023-02-27T08:27:22.447Z,61.03
2023-02-27T08:29:51.232Z,61.63
2023-02-27T08:33:37.641Z,61.37
2023-02-27T08:37:32.248Z,61.00
2023-02-27T08:40:01.180Z,60.70
2023-02-27T08:42:29.960Z,61.43
2023-02-27T08:44:58.716Z,60.65
2023-02-27T08:47:27.544Z,61.41
2023-02-27T08:49:56.493Z,61.19
2023-02-27T08:52:25.278Z,60.93
2023-02-27T08:54:55.523Z,60.08
2023-02-27T08:57:24.310Z,59.47
2023-02-27T09:00:47.354Z,60.09
2023-02-27T09:03:15.754Z,60.45
2023-02-27T09:05:45.809Z,59.62
2023-02-27T09:08:22.687Z,58.62
2023-02-27T09:10:58.327Z,57.92
2023-02-27T09:13:26.893Z,57.71
2023-02-27T09:15:57.079Z,56.76
2023-02-27T09:18:25.165Z,56.54
2023-02-27T09:20:53.699Z,57.64
2023-02-27T09:23:21.935Z,56.05
2023-02-27T09:25:50.144Z,56.24
2023-02-27T09:28:18.146Z,56.41
2023-02-27T09:30:46.860Z,55.65
2023-02-27T09:33:16.328Z,54.79
2023-02-27T09:35:44.516Z,54.98
2023-02-27T09:38:13.795Z,54.68
2023-02-27T09:40:45.774Z,54.98
2023-02-27T09:43:20.020Z,56.24
2023-02-27T09:45:51.388Z,55.75
2023-02-27T09:48:30.004Z,55.76
2023-02-27T09:51:01.247Z,54.10
2023-02-27T09:53:33.230Z,54.90
2023-02-27T09:56:09.385Z,54.39
2023-02-27T09:58:48.927Z,54.38
2023-02-27T10:01:22.033Z,54.41
2023-02-27T10:04:18.483Z,54.22
2023-02-27T10:06:51.430Z,54.74
2023-02-27T10:09:32.371Z,55.64
2023-02-27T10:12:14.334Z,55.14
2023-02-27T10:14:46.649Z,55.12
2023-02-27T10:17:19.407Z,55.00
2023-02-27T10:19:50.098Z,54.49
2023-02-27T10:22:24.841Z,54.20
2023-02-27T10:24:57.405Z,51.79
2023-02-27T10:27:25.627Z,53.28
2023-02-27T10:29:56.670Z,53.48
2023-02-27T10:32:28.334Z,54.02
2023-02-27T10:35:08.442Z,54.25
2023-02-27T10:37:38.844Z,56.39
2023-02-27T10:40:08.183Z,56.29
2023-02-27T10:42:41.658Z,55.74
2023-02-27T10:45:15.904Z,55.09
2023-02-27T10:47:44.187Z,55.54
2023-02-27T10:50:26.427Z,56.60
2023-02-27T10:52:56.519Z,55.56
2023-02-27T10:55:27.979Z,56.09
2023-02-27T10:57:57.420Z,55.33
2023-02-27T11:00:39.582Z,54.77
2023-02-27T11:03:17.597Z,54.53
2023-02-27T11:05:54.515Z,55.46
2023-02-27T11:08:24.699Z,55.82
2023-02-27T11:10:59.872Z,55.48
2023-02-27T11:13:30.961Z,55.94
2023-02-27T11:16:10.904Z,55.44
2023-02-27T11:18:40.510Z,55.14
2023-02-27T11:21:23.074Z,53.33
2023-02-27T11:24:01.994Z,55.42
2023-02-27T11:26:33.154Z,54.54
2023-02-27T11:29:22.379Z,52.22
2023-02-27T11:31:54.349Z,52.76
2023-02-27T11:34:31.835Z,51.24
2023-02-27T11:37:05.346Z,51.31
2023-02-27T11:39:37.977Z,49.91
2023-02-27T11:42:24.810Z,49.70
2023-02-27T11:44:57.813Z,48.48
2023-02-27T11:47:30.531Z,49.21
2023-02-27T11:50:41.031Z,48.84
2023-02-27T11:53:25.363Z,47.31
2023-02-27T11:55:58.285Z,47.50
2023-02-27T11:58:31.553Z,46.58
2023-02-27T12:01:04.575Z,45.81
2023-02-27T12:03:40.804Z,47.49
2023-02-27T12:06:18.214Z,45.56
2023-02-27T12:08:54.500Z,47.76
2023-02-27T12:11:28.605Z,46.50
2023-02-27T12:14:03.983Z,46.81
2023-02-27T12:16:36.084Z,47.62
2023-02-27T12:19:13.119Z,47.63
2023-02-27T12:21:45.144Z,45.94
2023-02-27T12:24:23.345Z,46.88
2023-02-27T12:27:02.102Z,46.01
2023-02-27T12:29:36.068Z,46.77
2023-02-27T12:32:15.984Z,44.77
2023-02-27T12:34:49.322Z,44.71
2023-02-27T12:37:24.491Z,42.45
2023-02-27T12:40:00.221Z,42.52
2023-02-27T12:42:49.964Z,41.82
2023-02-27T12:45:44.645Z,43.32
2023-02-27T12:48:23.254Z,44.06
2023-02-27T12:51:05.155Z,45.73
2023-02-27T12:54:04.488Z,43.80
2023-02-27T12:56:46.690Z,43.36
2023-02-27T12:59:32.166Z,41.40
2023-02-27T13:02:17.346Z,42.03
2023-02-27T13:04:48.172Z,43.13
2023-02-27T13:07:25.968Z,42.88
2023-02-27T13:10:01.301Z,42.66
2023-02-27T13:12:40.411Z,43.38
2023-02-27T13:15:19.729Z,42.21
2023-02-27T13:17:50.193Z,42.72
2023-02-27T13:20:30.975Z,42.84
2023-02-27T13:23:09.113Z,44.45
2023-02-27T13:25:39.988Z,44.93
2023-02-27T13:28:15.258Z,43.93
2023-02-27T13:30:48.528Z,44.66
2023-02-27T13:33:29.834Z,42.88
2023-02-27T13:36:06.365Z,43.19
2023-02-27T13:38:42.932Z,43.49
2023-02-27T13:41:37.045Z,41.97
2023-02-27T13:44:50.430Z,41.84
2023-02-27T13:47:45.728Z,41.75
2023-02-27T13:50:53.307Z,39.96
2023-02-27T13:53:24.635Z,39.60
2023-02-27T13:55:56.569Z,40.36
2023-02-27T13:58:25.829Z,40.53
2023-02-27T14:01:01.112Z,41.31
2023-02-27T14:03:32.514Z,41.02
2023-02-27T14:06:07.096Z,44.34
2023-02-27T14:08:49.483Z,42.52
2023-02-27T14:11:22.411Z,42.66
2023-02-27T14:14:09.245Z,42.41
2023-02-27T14:17:00.442Z,40.03
2023-02-27T14:19:57.037Z,39.75
2023-02-27T14:22:47.415Z,39.31
2023-02-27T14:25:22.132Z,39.56
2023-02-27T14:27:56.769Z,39.12
2023-02-27T14:30:34.937Z,39.82
2023-02-27T14:33:12.712Z,41.48
2023-02-27T14:35:44.368Z,39.64
2023-02-27T14:38:18.297Z,39.92
2023-02-27T14:41:08.152Z,40.33
2023-02-27T14:43:40.996Z,40.33
2023-02-27T14:46:25.710Z,42.00
2023-02-27T14:48:58.453Z,42.50
2023-02-27T14:51:30.469Z,41.06
2023-02-27T14:54:10.136Z,42.22
2023-02-27T14:56:38.370Z,40.55
2023-02-27T14:59:23.170Z,40.98
2023-02-27T15:01:54.316Z,41.37
2023-02-27T15:04:25.042Z,41.44
2023-02-27T15:06:55.510Z,41.60
2023-02-27T15:09:29.224Z,41.89
2023-02-27T15:12:03.890Z,40.51
2023-02-27T15:14:36.106Z,39.13
2023-02-27T15:17:05.403Z,41.19
2023-02-27T15:19:33.448Z,39.73
2023-02-27T15:22:05.515Z,38.64
2023-02-27T15:24:49.638Z,39.68
2023-02-27T15:27:24.551Z,40.64
2023-02-27T15:29:54.942Z,40.42
2023-02-27T15:32:28.896Z,41.96
2023-02-27T15:34:58.443Z,42.25
2023-02-27T15:37:30.146Z,41.72
2023-02-27T15:40:01.195Z,41.22
2023-02-27T15:42:33.600Z,42.57
2023-02-27T15:45:02.732Z,43.27
2023-02-27T15:47:32.989Z,42.70
2023-02-27T15:50:07.276Z,42.90
2023-02-27T15:52:43.234Z,43.62
2023-02-27T15:55:15.696Z,43.88
2023-02-27T15:57:56.423Z,43.48
2023-02-27T16:00:30.445Z,44.17
2023-02-27T16:03:00.036Z,44.65
2023-02-27T16:05:32.120Z,44.91
2023-02-27T16:08:01.099Z,45.48
2023-02-27T16:10:35.682Z,47.40
2023-02-27T16:13:21.899Z,47.19
2023-02-27T16:16:00.555Z,47.00
2023-02-27T16:18:34.924Z,46.76
2023-02-27T16:21:14.301Z,46.11
2023-02-27T16:23:46.059Z,46.92
2023-02-27T16:26:27.095Z,47.09
2023-02-27T16:28:58.036Z,46.87
2023-02-27T16:31:31.906Z,45.32
2023-02-27T16:34:02.138Z,45.75
2023-02-27T16:36:32.011Z,45.23
2023-02-27T16:39:01.205Z,45.66
2023-02-27T16:41:31.091Z,45.73
2023-02-27T16:43:59.126Z,45.59
2023-02-27T16:46:27.720Z,45.98
2023-02-27T16:49:04.517Z,46.07
2023-02-27T16:51:38.891Z,47.15
2023-02-27T16:54:07.124Z,47.54
2023-02-27T16:56:39.001Z,47.38
2023-02-27T16:59:08.075Z,47.69
2023-02-27T17:01:36.224Z,46.36
2023-02-27T17:04:13.353Z,46.75
2023-02-27T17:06:47.769Z,45.67
2023-02-27T17:09:15.774Z,46.01
2023-02-27T17:11:45.483Z,46.16
2023-02-27T17:14:14.000Z,46.45
2023-02-27T17:16:42.106Z,46.40
2023-02-27T17:19:14.247Z,46.67
2023-02-27T17:21:42.822Z,47.78
2023-02-27T17:24:11.008Z,47.89
2023-02-27T17:26:39.232Z,47.44
2023-02-27T17:29:09.658Z,48.17
2023-02-27T17:31:37.733Z,48.24
2023-02-27T17:34:08.925Z,48.55
2023-02-27T17:36:37.318Z,48.64
2023-02-27T17:39:06.042Z,47.90
2023-02-27T17:41:34.938Z,48.02
2023-02-27T17:44:03.169Z,48.01
2023-02-27T17:46:33.185Z,47.94
2023-02-27T17:49:01.873Z,48.45
2023-02-27T17:51:31.631Z,48.38
2023-02-27T17:54:02.631Z,48.29
2023-02-27T17:56:30.916Z,48.33
2023-02-27T17:58:59.659Z,48.18
2023-02-27T18:01:28.120Z,48.52
2023-02-27T18:03:57.907Z,48.19
2023-02-27T18:06:26.865Z,48.46
2023-02-27T18:08:55.252Z,48.13
2023-02-27T18:11:23.496Z,48.05
2023-02-27T18:13:51.935Z,47.98
2023-02-27T18:16:22.038Z,48.37
2023-02-27T18:18:50.346Z,48.19
2023-02-27T18:21:21.743Z,48.50
2023-02-27T18:23:50.849Z,48.30
2023-02-27T18:26:29.411Z,48.88
2023-02-27T18:29:00.553Z,49.43
2023-02-27T18:31:31.339Z,48.95
2023-02-27T18:33:59.466Z,49.68
2023-02-27T18:36:32.444Z,48.92
2023-02-27T18:39:01.114Z,49.33
2023-02-27T18:41:30.276Z,49.17
2023-02-27T18:43:59.532Z,48.79
2023-02-27T18:46:28.090Z,48.75
2023-02-27T18:48:56.647Z,48.91
2023-02-27T18:51:24.816Z,49.17
2023-02-27T18:53:54.890Z,49.26
2023-02-27T18:56:25.289Z,49.17
2023-02-27T18:58:54.499Z,48.61
2023-02-27T19:01:25.376Z,48.78
2023-02-27T19:03:56.373Z,49.30
2023-02-27T19:06:24.633Z,49.75
2023-02-27T19:08:53.989Z,49.79
2023-02-27T19:11:23.507Z,49.87
2023-02-27T19:13:51.684Z,49.81
2023-02-27T19:16:19.910Z,50.02
2023-02-27T19:18:48.046Z,50.41
2023-02-27T19:21:16.076Z,50.03
2023-02-27T19:23:44.516Z,50.57
2023-02-27T19:26:13.977Z,50.66
2023-02-27T19:28:41.995Z,51.54
2023-02-27T19:31:12.261Z,51.28
2023-02-27T19:33:40.777Z,51.22
2023-02-27T19:36:10.415Z,51.51
2023-02-27T19:38:38.744Z,51.76
2023-02-27T19:41:09.286Z,52.57
2023-02-27T19:43:40.416Z,52.88
2023-02-27T19:46:10.728Z,54.19
2023-02-27T19:48:39.597Z,53.65
2023-02-27T19:51:09.400Z,54.02
2023-02-27T19:53:39.191Z,54.02
2023-02-27T19:56:09.702Z,55.07
2023-02-27T19:58:39.826Z,55.07
2023-02-27T20:01:08.390Z,55.02
2023-02-27T20:03:37.447Z,55.48
2023-02-27T20:06:06.484Z,56.18
2023-02-27T20:08:35.478Z,55.72
2023-02-27T20:11:06.608Z,56.78
2023-02-27T20:13:36.073Z,56.47
2023-02-27T20:16:07.537Z,56.81
2023-02-27T20:18:37.628Z,56.24
2023-02-27T20:21:08.410Z,57.10
2023-02-27T20:23:41.660Z,57.56
2023-02-27T20:26:20.381Z,58.59
2023-02-27T20:28:49.617Z,58.45
2023-02-27T20:31:21.337Z,57.92
2023-02-27T20:33:50.492Z,58.15
2023-02-27T20:36:19.024Z,57.84
2023-02-27T20:38:47.108Z,58.32
2023-02-27T20:41:17.296Z,59.23
2023-02-27T20:43:45.637Z,58.69
2023-02-27T20:46:15.901Z,58.81
2023-02-27T20:48:45.475Z,59.05
2023-02-27T20:51:15.636Z,59.21
2023-02-27T20:53:46.996Z,59.85
2023-02-27T20:56:15.765Z,59.92
2023-02-27T20:58:43.940Z,59.42
2023-02-27T21:01:13.426Z,60.10
2023-02-27T21:03:43.129Z,60.15
2023-02-27T21:06:14.476Z,60.92
2023-02-27T21:08:45.065Z,62.00
2023-02-27T21:11:15.662Z,62.08
2023-02-27T21:13:44.222Z,62.02
2023-02-27T21:16:14.965Z,61.76
2023-02-27T21:18:43.673Z,61.61
2023-02-27T21:21:15.885Z,61.79
2023-02-27T21:23:44.382Z,61.31
2023-02-27T21:26:17.454Z,61.08
2023-02-27T21:28:47.884Z,61.78
2023-02-27T21:31:17.306Z,62.51
2023-02-27T21:33:46.074Z,63.47
2023-02-27T21:36:15.534Z,63.41
2023-02-27T21:38:43.508Z,62.54
2023-02-27T21:41:13.523Z,62.74
